createdAt,value
2023-02-07T00:01:35.600Z,2.40
2023-02-07T00:04:03.815Z,2.50
2023-02-07T00:06:35.471Z,2.30
2023-02-07T00:09:05.909Z,2.30
2023-02-07T00:11:34.582Z,2.60
2023-02-07T00:14:03.487Z,2.70
2023-02-07T00:16:31.714Z,2.50
2023-02-07T00:19:01.007Z,2.50
2023-02-07T00:21:30.283Z,2.50
2023-02-07T00:24:00.053Z,2.70
2023-02-07T00:26:29.600Z,2.70
2023-02-07T00:28:58.731Z,2.50
2023-02-07T00:31:29.414Z,2.60
2023-02-07T00:34:00.650Z,2.50
2023-02-07T00:36:31.181Z,2.20
2023-02-07T00:39:05.013Z,2.10
2023-02-07T00:41:33.638Z,2.00
2023-02-07T00:44:01.872Z,1.80
2023-02-07T00:46:30.938Z,1.70
2023-02-07T00:48:59.580Z,1.60
2023-02-07T00:51:27.832Z,1.50
2023-02-07T00:53:56.507Z,1.70
2023-02-07T00:56:28.664Z,1.80
2023-02-07T00:58:59.499Z,1.80
2023-02-07T01:01:28.896Z,2.10
2023-02-07T01:03:57.899Z,2.30
2023-02-07T01:06:26.035Z,2.30
2023-02-07T01:08:58.241Z,2.40
2023-02-07T01:11:28.795Z,2.40
2023-02-07T01:13:56.925Z,2.50
2023-02-07T01:16:28.096Z,2.50
2023-02-07T01:18:56.782Z,2.50
2023-02-07T01:21:27.611Z,2.40
2023-02-07T01:23:57.034Z,2.40
2023-02-07T01:26:27.291Z,2.40
2023-02-07T01:28:56.280Z,2.30
2023-02-07T01:31:25.437Z,2.40
2023-02-07T01:33:57.547Z,2.40
2023-02-07T01:36:27.658Z,2.30
2023-02-07T01:38:56.520Z,2.30
2023-02-07T01:41:27.760Z,2.30
2023-02-07T01:43:58.828Z,2.30
2023-02-07T01:46:27.771Z,2.20
2023-02-07T01:48:59.795Z,2.30
2023-02-07T01:51:30.165Z,2.30
2023-02-07T01:54:04.585Z,2.00
2023-02-07T01:56:36.690Z,2.10
2023-02-07T01:59:06.963Z,2.00
2023-02-07T02:01:36.076Z,2.00
2023-02-07T02:04:04.816Z,1.80
2023-02-07T02:06:34.502Z,1.80
2023-02-07T02:09:09.308Z,1.90
2023-02-07T02:12:00.794Z,1.70
2023-02-07T02:14:52.060Z,1.90
2023-02-07T02:17:29.515Z,2.00
2023-02-07T02:20:50.174Z,1.90
2023-02-07T02:23:30.193Z,1.80
2023-02-07T02:26:40.545Z,1.60
2023-02-07T02:29:33.105Z,1.60
2023-02-07T02:32:39.850Z,1.40
2023-02-07T02:35:15.826Z,1.20
2023-02-07T02:37:49.277Z,1.30
2023-02-07T02:40:22.929Z,1.10
2023-02-07T02:42:57.117Z,1.20
2023-02-07T02:45:29.581Z,1.00
2023-02-07T02:47:59.102Z,1.20
2023-02-07T02:50:30.411Z,1.20
2023-02-07T02:52:59.177Z,1.10
2023-02-07T02:55:48.193Z,1.00
2023-02-07T02:58:27.305Z,1.00
2023-02-07T03:01:06.998Z,1.00
2023-02-07T03:03:49.157Z,1.00
2023-02-07T03:06:29.848Z,1.20
2023-02-07T03:09:05.067Z,1.20
2023-02-07T03:11:41.100Z,1.00
2023-02-07T03:14:17.179Z,1.20
2023-02-07T03:16:51.852Z,1.30
2023-02-07T03:19:26.611Z,0.80
2023-02-07T03:22:00.066Z,0.90
2023-02-07T03:24:32.860Z,0.70
2023-02-07T03:27:05.961Z,0.80
2023-02-07T03:29:38.735Z,0.50
2023-02-07T03:32:09.347Z,0.50
2023-02-07T03:34:44.701Z,0.40
2023-02-07T03:37:17.520Z,0.40
2023-02-07T03:39:45.889Z,0.60
2023-02-07T03:42:21.165Z,0.60
2023-02-07T03:44:51.265Z,0.60
2023-02-07T03:47:20.449Z,0.60
2023-02-07T03:49:48.683Z,0.70
2023-02-07T03:52:18.274Z,0.60
2023-02-07T03:54:46.444Z,0.70
2023-02-07T03:57:14.569Z,0.60
2023-02-07T03:59:42.802Z,0.60
2023-02-07T04:02:11.205Z,0.70
2023-02-07T04:04:39.792Z,0.50
2023-02-07T04:07:08.042Z,0.50
2023-02-07T04:09:37.611Z,0.50
2023-02-07T04:12:06.338Z,0.60
2023-02-07T04:14:34.860Z,0.60
2023-02-07T04:17:03.014Z,0.60
2023-02-07T04:19:31.186Z,0.60
2023-02-07T04:21:59.443Z,0.60
2023-02-07T04:24:31.930Z,0.60
2023-02-07T04:27:01.532Z,0.80
2023-02-07T04:29:29.681Z,0.60
2023-02-07T04:31:59.030Z,0.50
2023-02-07T04:34:27.666Z,0.70
2023-02-07T04:36:55.938Z,0.80
2023-02-07T04:39:24.282Z,0.90
2023-02-07T04:41:52.509Z,0.90
2023-02-07T04:44:22.086Z,1.00
2023-02-07T04:46:50.213Z,0.90
2023-02-07T04:49:18.357Z,1.00
2023-02-07T04:51:46.834Z,1.10
2023-02-07T04:54:14.984Z,1.30
2023-02-07T04:56:43.139Z,1.40
2023-02-07T04:59:11.251Z,1.50
2023-02-07T05:01:40.725Z,1.20
2023-02-07T05:04:08.893Z,1.20
2023-02-07T05:06:37.350Z,1.10
2023-02-07T05:09:05.659Z,0.70
2023-02-07T05:11:33.749Z,0.30
2023-02-07T05:14:02.004Z,0.10
2023-02-07T05:16:30.469Z,-0.20
2023-02-07T05:19:00.342Z,0.00
2023-02-07T05:21:28.600Z,0.10
2023-02-07T05:23:56.648Z,-0.10
2023-02-07T05:26:24.748Z,-0.10
2023-02-07T05:28:53.177Z,0.00
2023-02-07T05:31:21.611Z,0.30
2023-02-07T05:33:48.794Z,0.60
2023-02-07T05:36:18.232Z,0.40
2023-02-07T05:38:46.323Z,0.10
2023-02-07T05:41:14.745Z,-0.30
2023-02-07T05:43:43.093Z,-0.30
2023-02-07T05:46:11.529Z,-0.10
2023-02-07T05:48:39.994Z,0.20
2023-02-07T05:51:08.154Z,0.50
2023-02-07T05:53:37.727Z,0.70
2023-02-07T05:56:06.236Z,0.70
2023-02-07T05:58:34.425Z,0.70
2023-02-07T06:01:02.607Z,0.80
2023-02-07T06:03:30.814Z,0.90
2023-02-07T06:05:58.988Z,1.00
2023-02-07T06:08:27.185Z,1.00
2023-02-07T06:10:57.033Z,1.10
2023-02-07T06:13:26.234Z,1.10
2023-02-07T06:15:54.383Z,1.10
2023-02-07T06:18:22.568Z,1.10
2023-02-07T06:20:51.713Z,1.10
2023-02-07T06:23:23.043Z,1.00
2023-02-07T06:25:51.177Z,1.00
2023-02-07T06:28:20.750Z,1.00
2023-02-07T06:30:49.012Z,0.90
2023-02-07T06:33:17.239Z,0.90
2023-02-07T06:35:47.389Z,0.90
2023-02-07T06:38:16.035Z,0.90
2023-02-07T06:40:44.700Z,0.80
2023-02-07T06:43:14.399Z,0.80
2023-02-07T06:45:43.928Z,0.90
2023-02-07T06:48:12.049Z,0.80
2023-02-07T06:50:40.216Z,0.80
2023-02-07T06:53:08.738Z,0.60
2023-02-07T06:55:39.515Z,0.60
2023-02-07T06:58:08.535Z,0.50
2023-02-07T07:00:36.631Z,0.30
2023-02-07T07:03:06.659Z,-0.10
2023-02-07T07:05:34.874Z,0.20
2023-02-07T07:08:03.246Z,0.30
2023-02-07T07:10:31.533Z,0.30
2023-02-07T07:12:59.852Z,0.30
2023-02-07T07:15:28.104Z,0.20
2023-02-07T07:17:56.781Z,0.40
2023-02-07T07:20:26.351Z,0.40
2023-02-07T07:22:54.799Z,0.50
2023-02-07T07:25:23.045Z,0.50
2023-02-07T07:27:51.228Z,0.50
2023-02-07T07:30:19.595Z,0.50
2023-02-07T07:32:47.682Z,0.40
2023-02-07T07:35:17.170Z,0.40
2023-02-07T07:37:48.212Z,0.50
2023-02-07T07:40:16.737Z,0.40
2023-02-07T07:42:45.109Z,0.50
2023-02-07T07:45:31.951Z,0.40
2023-02-07T07:48:00.182Z,0.30
2023-02-07T07:50:28.530Z,0.00
2023-02-07T07:52:58.173Z,-0.30
2023-02-07T07:55:26.512Z,-0.70
2023-02-07T07:57:54.774Z,-0.80
2023-02-07T08:00:22.899Z,-0.80
2023-02-07T08:02:51.048Z,-0.90
2023-02-07T08:05:19.617Z,-0.90
2023-02-07T08:07:47.695Z,-0.90
2023-02-07T08:10:18.389Z,-0.60
2023-02-07T08:12:46.502Z,-0.20
2023-02-07T08:15:14.645Z,-0.30
2023-02-07T08:17:42.760Z,-0.20
2023-02-07T08:20:12.830Z,0.00
2023-02-07T08:22:41.282Z,-0.20
2023-02-07T08:25:10.222Z,-0.50
2023-02-07T08:27:40.382Z,-0.50
2023-02-07T08:30:11.252Z,-0.20
2023-02-07T08:32:40.337Z,-0.30
2023-02-07T08:35:10.070Z,-0.40
2023-02-07T08:37:39.460Z,-0.40
2023-02-07T08:40:08.603Z,-0.40
2023-02-07T08:42:36.809Z,-0.40
2023-02-07T08:45:07.014Z,-0.40
2023-02-07T08:47:35.103Z,-0.40
2023-02-07T08:50:03.852Z,-0.40
2023-02-07T08:52:32.149Z,-0.30
2023-02-07T08:55:00.311Z,-0.30
2023-02-07T08:57:28.700Z,-0.30
2023-02-07T08:59:57.138Z,-0.20
2023-02-07T09:02:27.208Z,-0.10
2023-02-07T09:04:55.937Z,0.00
2023-02-07T09:07:24.349Z,0.00
2023-02-07T09:09:52.977Z,0.00
2023-02-07T09:12:21.225Z,0.10
2023-02-07T09:14:49.714Z,0.20
2023-02-07T09:17:18.157Z,0.30
2023-02-07T09:19:47.638Z,0.30
2023-02-07T09:22:15.821Z,0.30
2023-02-07T09:24:43.972Z,0.30
2023-02-07T09:27:12.524Z,0.30
2023-02-07T09:29:40.877Z,0.40
2023-02-07T09:32:09.057Z,0.40
2023-02-07T09:34:37.293Z,0.40
2023-02-07T09:37:06.827Z,0.50
2023-02-07T09:39:38.285Z,0.50
2023-02-07T09:42:17.162Z,0.40
2023-02-07T09:44:55.827Z,0.50
2023-02-07T09:47:25.355Z,0.50
2023-02-07T09:49:58.397Z,0.50
2023-02-07T09:52:37.438Z,0.60
2023-02-07T09:55:06.709Z,0.60
2023-02-07T09:57:41.882Z,0.60
2023-02-07T10:00:22.847Z,0.60
2023-02-07T10:02:55.151Z,0.70
2023-02-07T10:05:29.349Z,0.80
2023-02-07T10:07:58.985Z,0.90
2023-02-07T10:10:37.442Z,0.90
2023-02-07T10:13:21.073Z,1.00
2023-02-07T10:15:59.080Z,1.00
2023-02-07T10:18:41.821Z,1.10
2023-02-07T10:21:19.818Z,1.00
2023-02-07T10:24:18.811Z,1.10
2023-02-07T10:26:50.658Z,1.20
2023-02-07T10:29:45.451Z,1.20
2023-02-07T10:32:16.385Z,1.30
2023-02-07T10:34:48.372Z,1.30
2023-02-07T10:37:21.699Z,1.50
2023-02-07T10:39:58.085Z,1.50
2023-02-07T10:42:27.452Z,1.50
2023-02-07T10:44:55.568Z,1.50
2023-02-07T10:47:25.357Z,1.60
2023-02-07T10:49:55.643Z,1.70
2023-02-07T10:52:29.636Z,1.70
2023-02-07T10:55:00.746Z,1.80
2023-02-07T10:57:30.379Z,1.80
2023-02-07T11:00:23.242Z,1.80
2023-02-07T11:02:52.259Z,1.90
2023-02-07T11:05:41.357Z,1.90
2023-02-07T11:08:25.410Z,1.90
2023-02-07T11:10:56.855Z,1.90
2023-02-07T11:13:28.862Z,2.00
2023-02-07T11:16:01.001Z,2.10
2023-02-07T11:18:43.517Z,2.10
2023-02-07T11:21:26.214Z,2.20
2023-02-07T11:23:56.892Z,2.20
2023-02-07T11:26:26.708Z,2.30
2023-02-07T11:29:02.999Z,2.40
2023-02-07T11:31:35.748Z,2.50
2023-02-07T11:34:20.630Z,2.40
2023-02-07T11:36:48.800Z,2.30
2023-02-07T11:39:21.190Z,2.40
2023-02-07T11:41:59.738Z,2.40
2023-02-07T11:44:30.704Z,2.50
2023-02-07T11:47:04.100Z,2.50
2023-02-07T11:49:42.740Z,2.60
2023-02-07T11:52:11.652Z,2.60
2023-02-07T11:54:42.369Z,2.70
2023-02-07T11:57:15.369Z,2.60
2023-02-07T11:59:49.254Z,2.70
2023-02-07T12:02:21.104Z,2.70
2023-02-07T12:04:50.561Z,2.70
2023-02-07T12:07:25.482Z,2.70
2023-02-07T12:09:57.442Z,2.80
2023-02-07T12:12:35.098Z,2.90
2023-02-07T12:15:08.272Z,3.10
2023-02-07T12:17:45.978Z,3.10
2023-02-07T12:20:23.521Z,3.20
2023-02-07T12:23:11.632Z,3.20
2023-02-07T12:25:51.957Z,3.30
2023-02-07T12:28:28.396Z,3.20
2023-02-07T12:31:00.912Z,3.20
2023-02-07T12:33:38.215Z,3.40
2023-02-07T12:36:13.787Z,3.40
2023-02-07T12:38:48.256Z,3.50
2023-02-07T12:41:24.330Z,3.50
2023-02-07T12:44:06.445Z,3.50
2023-02-07T12:46:43.013Z,3.60
2023-02-07T12:49:28.564Z,3.60
2023-02-07T12:52:07.298Z,3.70
2023-02-07T12:54:41.861Z,3.80
2023-02-07T12:57:16.766Z,3.80
2023-02-07T12:59:55.211Z,3.80
2023-02-07T13:02:34.561Z,3.90
2023-02-07T13:05:29.818Z,3.90
2023-02-07T13:08:07.569Z,3.80
2023-02-07T13:10:49.259Z,3.90
2023-02-07T13:13:23.559Z,3.90
2023-02-07T13:15:59.231Z,3.90
2023-02-07T13:18:37.552Z,4.10
2023-02-07T13:21:18.789Z,4.10
2023-02-07T13:23:49.740Z,4.30
2023-02-07T13:26:21.330Z,4.30
2023-02-07T13:28:53.097Z,4.30
2023-02-07T13:31:26.668Z,4.20
2023-02-07T13:33:55.295Z,4.30
2023-02-07T13:36:32.301Z,4.30
2023-02-07T13:39:15.168Z,4.30
2023-02-07T13:41:53.738Z,4.20
2023-02-07T13:44:27.955Z,4.30
2023-02-07T13:47:17.846Z,4.30
2023-02-07T13:49:51.546Z,4.30
2023-02-07T13:52:27.634Z,4.70
2023-02-07T13:55:03.574Z,4.50
2023-02-07T13:58:00.914Z,4.40
2023-02-07T14:00:31.547Z,4.40
2023-02-07T14:03:03.527Z,4.40
2023-02-07T14:05:34.390Z,4.30
2023-02-07T14:08:04.912Z,4.30
2023-02-07T14:10:45.947Z,4.30
2023-02-07T14:13:32.977Z,4.40
2023-02-07T14:16:08.513Z,4.30
2023-02-07T14:18:46.809Z,4.40
2023-02-07T14:21:33.128Z,4.40
2023-02-07T14:24:18.687Z,4.30
2023-02-07T14:27:05.102Z,4.30
2023-02-07T14:29:54.854Z,4.30
2023-02-07T14:33:05.295Z,4.30
2023-02-07T14:35:37.695Z,4.30
2023-02-07T14:38:23.492Z,4.30
2023-02-07T14:41:10.126Z,4.20
2023-02-07T14:44:09.481Z,4.30
2023-02-07T14:46:41.138Z,4.50
2023-02-07T14:49:16.160Z,4.30
2023-02-07T14:51:48.181Z,4.20
2023-02-07T14:54:20.909Z,4.20
2023-02-07T14:56:54.585Z,4.10
2023-02-07T14:59:29.258Z,4.10
2023-02-07T15:01:57.484Z,4.10
2023-02-07T15:04:25.632Z,4.10
2023-02-07T15:06:55.237Z,4.20
2023-02-07T15:09:27.073Z,4.20
2023-02-07T15:12:08.758Z,4.10
2023-02-07T15:14:41.662Z,4.10
2023-02-07T15:17:10.005Z,4.10
2023-02-07T15:19:40.819Z,4.10
2023-02-07T15:22:24.126Z,4.10
2023-02-07T15:24:56.726Z,4.20
2023-02-07T15:27:26.748Z,4.30
2023-02-07T15:29:57.147Z,4.20
2023-02-07T15:32:30.100Z,4.20
2023-02-07T15:34:58.861Z,4.10
2023-02-07T15:37:28.393Z,4.50
2023-02-07T15:39:58.511Z,4.30
2023-02-07T15:42:26.686Z,4.10
2023-02-07T15:44:57.028Z,4.10
2023-02-07T15:47:37.521Z,4.00
2023-02-07T15:50:09.060Z,4.00
2023-02-07T15:52:43.600Z,4.00
2023-02-07T15:55:19.001Z,3.90
2023-02-07T15:57:47.380Z,3.90
2023-02-07T16:00:19.858Z,3.80
2023-02-07T16:02:57.739Z,4.00
2023-02-07T16:05:29.380Z,3.90
2023-02-07T16:07:59.759Z,3.90
2023-02-07T16:10:38.492Z,3.70
2023-02-07T16:13:19.057Z,3.70
2023-02-07T16:15:56.241Z,3.70
2023-02-07T16:18:39.356Z,3.50
2023-02-07T16:21:17.014Z,3.70
2023-02-07T16:23:48.033Z,3.80
2023-02-07T16:26:18.122Z,4.20
2023-02-07T16:28:46.942Z,4.40
2023-02-07T16:31:15.215Z,4.50
2023-02-07T16:33:43.392Z,4.70
2023-02-07T16:36:16.038Z,4.70
2023-02-07T16:38:44.513Z,4.70
2023-02-07T16:41:26.026Z,4.80
2023-02-07T16:43:55.354Z,4.70
2023-02-07T16:46:23.588Z,4.70
2023-02-07T16:48:51.949Z,4.80
2023-02-07T16:51:20.140Z,4.30
2023-02-07T16:53:48.288Z,4.50
2023-02-07T16:56:24.834Z,4.30
2023-02-07T16:58:53.350Z,4.40
2023-02-07T17:01:23.044Z,4.50
2023-02-07T17:03:51.270Z,4.50
2023-02-07T17:06:21.158Z,4.50
2023-02-07T17:08:50.998Z,4.50
2023-02-07T17:11:25.270Z,4.50
2023-02-07T17:13:54.014Z,4.40
2023-02-07T17:16:22.765Z,4.50
2023-02-07T17:18:51.160Z,4.40
2023-02-07T17:21:22.015Z,4.30
2023-02-07T17:23:50.784Z,4.40
2023-02-07T17:26:24.559Z,4.40
2023-02-07T17:28:52.920Z,4.40
2023-02-07T17:31:21.892Z,4.50
2023-02-07T17:33:51.565Z,4.50
2023-02-07T17:36:19.914Z,4.40
2023-02-07T17:38:48.182Z,4.40
2023-02-07T17:41:17.775Z,4.40
2023-02-07T17:43:47.707Z,4.30
2023-02-07T17:46:19.148Z,4.30
2023-02-07T17:48:49.130Z,4.20
2023-02-07T17:51:18.261Z,4.20
2023-02-07T17:53:47.157Z,4.00
2023-02-07T17:56:21.761Z,3.90
2023-02-07T17:58:51.324Z,3.90
2023-02-07T18:01:20.244Z,3.90
2023-02-07T18:03:49.341Z,3.90
2023-02-07T18:06:19.149Z,3.90
2023-02-07T18:08:48.249Z,3.80
2023-02-07T18:11:16.654Z,3.80
2023-02-07T18:13:46.726Z,3.70
2023-02-07T18:16:18.202Z,3.70
2023-02-07T18:18:46.389Z,3.50
2023-02-07T18:21:14.541Z,3.20
2023-02-07T18:23:43.384Z,3.10
2023-02-07T18:26:12.477Z,3.20
2023-02-07T18:28:40.942Z,3.30
2023-02-07T18:31:13.650Z,3.40
2023-02-07T18:33:43.346Z,3.40
2023-02-07T18:36:12.440Z,3.40
2023-02-07T18:38:40.966Z,3.30
2023-02-07T18:41:10.429Z,3.20
2023-02-07T18:43:39.360Z,2.90
2023-02-07T18:46:11.286Z,2.80
2023-02-07T18:48:40.101Z,2.60
2023-02-07T18:51:11.899Z,2.30
2023-02-07T18:53:40.989Z,2.50
2023-02-07T18:56:12.879Z,2.50
2023-02-07T18:58:41.129Z,2.70
2023-02-07T19:01:13.154Z,2.70
2023-02-07T19:03:41.333Z,2.50
2023-02-07T19:06:10.902Z,2.50
2023-02-07T19:08:40.603Z,2.00
2023-02-07T19:11:09.699Z,1.90
2023-02-07T19:13:38.233Z,1.70
2023-02-07T19:16:07.590Z,1.40
2023-02-07T19:18:36.240Z,0.70
2023-02-07T19:21:05.803Z,1.30
2023-02-07T19:23:36.125Z,1.60
2023-02-07T19:26:05.397Z,1.90
2023-02-07T19:28:34.670Z,2.00
2023-02-07T19:31:04.446Z,2.00
2023-02-07T19:33:32.834Z,2.10
2023-02-07T19:36:06.188Z,2.20
2023-02-07T19:38:36.245Z,2.10
2023-02-07T19:41:05.064Z,1.90
2023-02-07T19:43:33.519Z,2.10
2023-02-07T19:46:01.837Z,2.20
2023-02-07T19:48:30.438Z,2.20
2023-02-07T19:51:00.134Z,2.20
2023-02-07T19:53:29.456Z,2.20
2023-02-07T19:56:03.508Z,2.20
2023-02-07T19:58:32.677Z,2.10
2023-02-07T20:01:01.372Z,2.10
2023-02-07T20:03:30.123Z,2.20
2023-02-07T20:06:01.043Z,2.20
2023-02-07T20:08:33.776Z,2.10
2023-02-07T20:11:06.958Z,2.00
2023-02-07T20:13:35.727Z,2.00
2023-02-07T20:16:05.731Z,1.30
2023-02-07T20:18:34.513Z,1.00
2023-02-07T20:21:11.472Z,1.30
2023-02-07T20:23:41.675Z,1.50
2023-02-07T20:26:13.621Z,1.50
2023-02-07T20:28:42.325Z,1.50
2023-02-07T20:31:12.790Z,1.70
2023-02-07T20:33:42.163Z,1.70
2023-02-07T20:36:11.784Z,1.80
2023-02-07T20:38:40.473Z,1.80
2023-02-07T20:41:11.630Z,1.70
2023-02-07T20:43:40.230Z,1.70
2023-02-07T20:46:11.028Z,1.60
2023-02-07T20:48:39.330Z,1.50
2023-02-07T20:51:10.325Z,1.60
2023-02-07T20:53:39.642Z,1.40
2023-02-07T20:56:11.532Z,1.30
2023-02-07T20:58:40.512Z,1.40
2023-02-07T21:01:10.954Z,1.30
2023-02-07T21:03:39.854Z,1.40
2023-02-07T21:06:09.188Z,0.70
2023-02-07T21:08:38.164Z,0.20
2023-02-07T21:11:07.981Z,0.40
2023-02-07T21:13:38.470Z,0.80
2023-02-07T21:16:08.776Z,0.80
2023-02-07T21:18:37.605Z,0.90
2023-02-07T21:21:09.896Z,1.10
2023-02-07T21:23:38.672Z,1.10
2023-02-07T21:26:08.110Z,1.20
2023-02-07T21:28:38.232Z,1.00
2023-02-07T21:31:07.692Z,0.60
2023-02-07T21:33:35.932Z,0.10
2023-02-07T21:36:06.226Z,-0.10
2023-02-07T21:38:34.973Z,0.20
2023-02-07T21:41:03.706Z,0.40
2023-02-07T21:43:31.877Z,0.70
2023-02-07T21:46:06.401Z,0.80
2023-02-07T21:48:35.804Z,0.90
2023-02-07T21:51:05.702Z,1.00
2023-02-07T21:53:34.331Z,1.10
2023-02-07T21:56:02.862Z,1.10
2023-02-07T21:58:31.365Z,1.10
2023-02-07T22:01:08.076Z,1.20
2023-02-07T22:03:37.154Z,1.30
2023-02-07T22:06:06.242Z,1.30
2023-02-07T22:08:34.983Z,1.30
2023-02-07T22:11:04.812Z,1.30
2023-02-07T22:13:33.393Z,1.30
2023-02-07T22:16:01.912Z,1.20
2023-02-07T22:18:31.642Z,1.30
2023-02-07T22:21:04.133Z,1.30
2023-02-07T22:23:32.479Z,1.40
2023-02-07T22:26:00.669Z,1.40
2023-02-07T22:28:29.209Z,1.40
2023-02-07T22:30:57.567Z,1.40
2023-02-07T22:33:26.495Z,1.40
2023-02-07T22:35:56.014Z,1.40
2023-02-07T22:38:24.104Z,1.40
2023-02-07T22:40:52.377Z,1.50
2023-02-07T22:43:20.580Z,1.50
2023-02-07T22:45:48.762Z,1.50
2023-02-07T22:48:17.926Z,1.50
2023-02-07T22:50:46.144Z,1.60
2023-02-07T22:53:15.745Z,1.60
2023-02-07T22:55:43.921Z,1.50
2023-02-07T22:58:15.581Z,1.50
2023-02-07T23:00:44.214Z,1.40
2023-02-07T23:03:12.313Z,1.50
2023-02-07T23:05:40.880Z,1.60
2023-02-07T23:08:09.068Z,1.60
2023-02-07T23:10:40.961Z,1.50
2023-02-07T23:13:09.233Z,1.50
2023-02-07T23:15:37.638Z,1.50
2023-02-07T23:18:06.365Z,1.50
2023-02-07T23:20:34.659Z,1.40
2023-02-07T23:23:02.805Z,1.50
2023-02-07T23:25:31.018Z,1.40
2023-02-07T23:28:00.869Z,1.50
2023-02-07T23:30:29.023Z,1.30
2023-02-07T23:32:57.438Z,1.30
2023-02-07T23:35:25.761Z,1.30
2023-02-07T23:37:53.833Z,1.10
2023-02-07T23:40:22.017Z,1.20
2023-02-07T23:42:50.125Z,0.90
2023-02-07T23:45:19.773Z,0.80
2023-02-07T23:47:47.872Z,1.00
2023-02-07T23:50:16.175Z,1.10
2023-02-07T23:52:44.342Z,0.90
2023-02-07T23:55:12.728Z,0.90
2023-02-07T23:57:40.929Z,1.10
